sensor_id;sensor_type;location;lat;lon;timestamp;temperature;humidity
53643;DHT22;39546;45.534;12.048;2023-03-13T00:01:45;11.90;76.00
53643;DHT22;39546;45.534;12.048;2023-03-13T00:07:47;11.80;76.10
53643;DHT22;39546;45.534;12.048;2023-03-13T00:13:53;11.70;75.90
53643;DHT22;39546;45.534;12.048;2023-03-13T00:19:56;11.70;75.90
53643;DHT22;39546;45.534;12.048;2023-03-13T00:26:02;11.70;76.40
53643;DHT22;39546;45.534;12.048;2023-03-13T00:32:04;11.70;75.90
53643;DHT22;39546;45.534;12.048;2023-03-13T00:38:06;11.50;75.80
53643;DHT22;39546;45.534;12.048;2023-03-13T00:44:09;11.30;76.10
53643;DHT22;39546;45.534;12.048;2023-03-13T00:50:11;11.30;75.70
53643;DHT22;39546;45.534;12.048;2023-03-13T00:56:15;11.40;75.90
53643;DHT22;39546;45.534;12.048;2023-03-13T01:02:18;11.20;76.00
53643;DHT22;39546;45.534;12.048;2023-03-13T01:08:20;11.20;76.10
53643;DHT22;39546;45.534;12.048;2023-03-13T01:14:22;11.20;76.50
53643;DHT22;39546;45.534;12.048;2023-03-13T01:20:25;11.00;76.90
53643;DHT22;39546;45.534;12.048;2023-03-13T01:26:29;11.00;77.20
53643;DHT22;39546;45.534;12.048;2023-03-13T01:32:32;11.00;77.50
53643;DHT22;39546;45.534;12.048;2023-03-13T01:38:37;11.00;77.80
53643;DHT22;39546;45.534;12.048;2023-03-13T01:44:54;10.90;77.70
53643;DHT22;39546;45.534;12.048;2023-03-13T01:51:00;10.80;77.60
53643;DHT22;39546;45.534;12.048;2023-03-13T01:57:24;10.80;77.50
53643;DHT22;39546;45.534;12.048;2023-03-13T02:03:28;10.80;77.10
53643;DHT22;39546;45.534;12.048;2023-03-13T02:09:33;11.00;77.30
53643;DHT22;39546;45.534;12.048;2023-03-13T02:15:36;10.90;77.20
53643;DHT22;39546;45.534;12.048;2023-03-13T02:21:46;10.80;77.30
53643;DHT22;39546;45.534;12.048;2023-03-13T02:28:02;10.70;77.30
53643;DHT22;39546;45.534;12.048;2023-03-13T02:34:06;10.60;77.40
53643;DHT22;39546;45.534;12.048;2023-03-13T02:40:11;10.60;77.20
53643;DHT22;39546;45.534;12.048;2023-03-13T02:46:18;10.60;77.20
53643;DHT22;39546;45.534;12.048;2023-03-13T02:52:25;10.70;77.40
53643;DHT22;39546;45.534;12.048;2023-03-13T02:58:37;10.80;77.10
53643;DHT22;39546;45.534;12.048;2023-03-13T03:04:39;10.80;76.90
53643;DHT22;39546;45.534;12.048;2023-03-13T03:10:44;10.70;76.50
53643;DHT22;39546;45.534;12.048;2023-03-13T03:16:47;10.70;76.90
53643;DHT22;39546;45.534;12.048;2023-03-13T03:22:49;10.60;77.10
53643;DHT22;39546;45.534;12.048;2023-03-13T03:28:51;10.70;77.10
53643;DHT22;39546;45.534;12.048;2023-03-13T03:34:54;10.90;77.70
53643;DHT22;39546;45.534;12.048;2023-03-13T03:40:58;11.10;78.40
53643;DHT22;39546;45.534;12.048;2023-03-13T03:47:00;11.30;79.50
53643;DHT22;39546;45.534;12.048;2023-03-13T03:53:03;11.50;80.10
53643;DHT22;39546;45.534;12.048;2023-03-13T03:59:06;11.70;80.50
53643;DHT22;39546;45.534;12.048;2023-03-13T04:05:09;11.80;80.90
53643;DHT22;39546;45.534;12.048;2023-03-13T04:11:12;12.00;81.20
53643;DHT22;39546;45.534;12.048;2023-03-13T04:17:15;12.00;80.70
53643;DHT22;39546;45.534;12.048;2023-03-13T04:23:18;12.00;80.30
53643;DHT22;39546;45.534;12.048;2023-03-13T04:29:20;11.80;79.80
53643;DHT22;39546;45.534;12.048;2023-03-13T04:35:23;11.80;80.10
53643;DHT22;39546;45.534;12.048;2023-03-13T04:41:26;11.70;79.70
53643;DHT22;39546;45.534;12.048;2023-03-13T04:47:29;11.80;80.20
53643;DHT22;39546;45.534;12.048;2023-03-13T04:53:33;11.80;80.80
53643;DHT22;39546;45.534;12.048;2023-03-13T04:59:36;11.80;81.20
53643;DHT22;39546;45.534;12.048;2023-03-13T05:05:38;11.90;81.30
53643;DHT22;39546;45.534;12.048;2023-03-13T05:11:44;11.90;81.20
53643;DHT22;39546;45.534;12.048;2023-03-13T05:17:46;11.80;80.70
53643;DHT22;39546;45.534;12.048;2023-03-13T05:23:49;11.80;81.10
53643;DHT22;39546;45.534;12.048;2023-03-13T05:29:52;12.00;81.00
53643;DHT22;39546;45.534;12.048;2023-03-13T05:35:54;11.90;80.60
53643;DHT22;39546;45.534;12.048;2023-03-13T05:41:57;11.50;80.90
53643;DHT22;39546;45.534;12.048;2023-03-13T05:48:00;11.20;81.10
53643;DHT22;39546;45.534;12.048;2023-03-13T05:54:03;11.50;80.80
53643;DHT22;39546;45.534;12.048;2023-03-13T06:00:07;11.70;80.40
53643;DHT22;39546;45.534;12.048;2023-03-13T06:06:14;11.90;79.80
53643;DHT22;39546;45.534;12.048;2023-03-13T06:12:18;12.10;80.30
53643;DHT22;39546;45.534;12.048;2023-03-13T06:18:21;12.20;81.20
53643;DHT22;39546;45.534;12.048;2023-03-13T06:24:23;12.40;81.60
53643;DHT22;39546;45.534;12.048;2023-03-13T06:30:25;12.60;82.20
53643;DHT22;39546;45.534;12.048;2023-03-13T06:36:28;12.70;82.70
53643;DHT22;39546;45.534;12.048;2023-03-13T06:42:30;12.80;82.60
53643;DHT22;39546;45.534;12.048;2023-03-13T06:48:32;12.70;82.00
53643;DHT22;39546;45.534;12.048;2023-03-13T06:54:35;12.70;82.50
53643;DHT22;39546;45.534;12.048;2023-03-13T07:00:37;12.80;82.40
53643;DHT22;39546;45.534;12.048;2023-03-13T07:06:41;12.90;82.80
53643;DHT22;39546;45.534;12.048;2023-03-13T07:12:43;12.80;83.20
53643;DHT22;39546;45.534;12.048;2023-03-13T07:18:45;12.90;83.40
53643;DHT22;39546;45.534;12.048;2023-03-13T07:24:47;12.90;83.10
53643;DHT22;39546;45.534;12.048;2023-03-13T07:30:49;12.70;83.40
53643;DHT22;39546;45.534;12.048;2023-03-13T07:36:51;12.80;83.70
53643;DHT22;39546;45.534;12.048;2023-03-13T07:42:54;13.10;83.60
53643;DHT22;39546;45.534;12.048;2023-03-13T07:48:56;13.10;84.40
53643;DHT22;39546;45.534;12.048;2023-03-13T07:54:59;13.20;84.20
53643;DHT22;39546;45.534;12.048;2023-03-13T08:01:10;13.30;85.10
53643;DHT22;39546;45.534;12.048;2023-03-13T08:07:13;13.50;85.00
53643;DHT22;39546;45.534;12.048;2023-03-13T08:13:15;13.20;84.60
53643;DHT22;39546;45.534;12.048;2023-03-13T08:19:17;13.30;85.30
53643;DHT22;39546;45.534;12.048;2023-03-13T08:25:19;13.30;85.30
53643;DHT22;39546;45.534;12.048;2023-03-13T08:31:24;13.60;85.30
53643;DHT22;39546;45.534;12.048;2023-03-13T08:37:26;13.70;84.90
53643;DHT22;39546;45.534;12.048;2023-03-13T08:43:28;13.80;84.80
53643;DHT22;39546;45.534;12.048;2023-03-13T08:49:30;13.70;84.50
53643;DHT22;39546;45.534;12.048;2023-03-13T08:55:32;13.60;84.50
53643;DHT22;39546;45.534;12.048;2023-03-13T09:01:35;13.70;84.50
53643;DHT22;39546;45.534;12.048;2023-03-13T09:07:37;13.90;84.70
53643;DHT22;39546;45.534;12.048;2023-03-13T09:13:42;13.90;84.90
53643;DHT22;39546;45.534;12.048;2023-03-13T09:19:45;13.90;84.70
53643;DHT22;39546;45.534;12.048;2023-03-13T09:25:48;13.90;84.90
53643;DHT22;39546;45.534;12.048;2023-03-13T09:31:50;14.00;84.80
53643;DHT22;39546;45.534;12.048;2023-03-13T09:37:52;14.00;84.60
53643;DHT22;39546;45.534;12.048;2023-03-13T09:50:32;14.20;84.00
53643;DHT22;39546;45.534;12.048;2023-03-13T09:56:48;14.20;84.30
53643;DHT22;39546;45.534;12.048;2023-03-13T10:09:18;14.60;84.20
53643;DHT22;39546;45.534;12.048;2023-03-13T10:16:00;14.60;83.80
53643;DHT22;39546;45.534;12.048;2023-03-13T10:22:12;14.60;82.70
53643;DHT22;39546;45.534;12.048;2023-03-13T10:28:16;14.60;82.00
53643;DHT22;39546;45.534;12.048;2023-03-13T10:34:21;14.70;82.60
53643;DHT22;39546;45.534;12.048;2023-03-13T10:40:41;15.00;82.90
53643;DHT22;39546;45.534;12.048;2023-03-13T10:46:47;15.30;83.20
53643;DHT22;39546;45.534;12.048;2023-03-13T10:52:49;15.50;82.80
53643;DHT22;39546;45.534;12.048;2023-03-13T10:58:52;15.60;81.40
53643;DHT22;39546;45.534;12.048;2023-03-13T11:04:55;15.60;81.10
53643;DHT22;39546;45.534;12.048;2023-03-13T11:11:00;15.80;80.80
53643;DHT22;39546;45.534;12.048;2023-03-13T11:23:44;16.30;80.70
53643;DHT22;39546;45.534;12.048;2023-03-13T12:02:01;16.90;79.70
53643;DHT22;39546;45.534;12.048;2023-03-13T12:08:15;16.80;79.20
53643;DHT22;39546;45.534;12.048;2023-03-13T12:14:26;16.70;79.40
53643;DHT22;39546;45.534;12.048;2023-03-13T12:20:46;16.50;81.80
53643;DHT22;39546;45.534;12.048;2023-03-13T12:26:56;16.60;81.30
53643;DHT22;39546;45.534;12.048;2023-03-13T12:59:23;17.60;74.40
53643;DHT22;39546;45.534;12.048;2023-03-13T13:05:27;17.50;72.20
53643;DHT22;39546;45.534;12.048;2023-03-13T13:30:38;18.00;71.60
53643;DHT22;39546;45.534;12.048;2023-03-13T13:36:40;18.10;68.60
53643;DHT22;39546;45.534;12.048;2023-03-13T13:42:48;18.20;69.30
53643;DHT22;39546;45.534;12.048;2023-03-13T14:01:30;17.50;70.60
53643;DHT22;39546;45.534;12.048;2023-03-13T14:13:41;17.60;71.00
53643;DHT22;39546;45.534;12.048;2023-03-13T14:19:43;17.70;71.60
53643;DHT22;39546;45.534;12.048;2023-03-13T14:25:48;17.80;71.10
53643;DHT22;39546;45.534;12.048;2023-03-13T14:31:52;18.10;70.90
53643;DHT22;39546;45.534;12.048;2023-03-13T14:38:01;18.20;69.70
53643;DHT22;39546;45.534;12.048;2023-03-13T14:44:14;18.20;69.40
53643;DHT22;39546;45.534;12.048;2023-03-13T14:50:21;18.20;70.40
53643;DHT22;39546;45.534;12.048;2023-03-13T14:56:38;18.20;69.90
53643;DHT22;39546;45.534;12.048;2023-03-13T15:02:43;18.20;69.20
53643;DHT22;39546;45.534;12.048;2023-03-13T15:08:48;18.00;69.90
53643;DHT22;39546;45.534;12.048;2023-03-13T15:14:51;18.00;70.90
53643;DHT22;39546;45.534;12.048;2023-03-13T15:20:56;18.10;70.90
53643;DHT22;39546;45.534;12.048;2023-03-13T15:26:59;18.40;69.70
53643;DHT22;39546;45.534;12.048;2023-03-13T15:33:01;18.70;69.10
53643;DHT22;39546;45.534;12.048;2023-03-13T15:39:15;18.00;70.50
53643;DHT22;39546;45.534;12.048;2023-03-13T15:45:17;18.00;71.40
53643;DHT22;39546;45.534;12.048;2023-03-13T15:51:19;18.10;71.90
53643;DHT22;39546;45.534;12.048;2023-03-13T15:57:23;17.90;72.40
53643;DHT22;39546;45.534;12.048;2023-03-13T16:03:27;17.80;72.40
53643;DHT22;39546;45.534;12.048;2023-03-13T16:09:30;18.20;71.90
53643;DHT22;39546;45.534;12.048;2023-03-13T16:15:32;19.00;71.80
53643;DHT22;39546;45.534;12.048;2023-03-13T16:21:34;19.00;71.70
53643;DHT22;39546;45.534;12.048;2023-03-13T16:27:37;18.80;72.50
53643;DHT22;39546;45.534;12.048;2023-03-13T16:33:40;19.10;72.00
53643;DHT22;39546;45.534;12.048;2023-03-13T16:39:43;19.00;71.50
53643;DHT22;39546;45.534;12.048;2023-03-13T16:45:45;18.60;72.60
53643;DHT22;39546;45.534;12.048;2023-03-13T16:51:48;18.20;73.50
53643;DHT22;39546;45.534;12.048;2023-03-13T16:57:51;17.70;74.00
53643;DHT22;39546;45.534;12.048;2023-03-13T17:03:57;17.30;75.40
53643;DHT22;39546;45.534;12.048;2023-03-13T17:09:59;17.00;75.70
53643;DHT22;39546;45.534;12.048;2023-03-13T17:16:01;17.00;75.70
53643;DHT22;39546;45.534;12.048;2023-03-13T17:22:03;16.80;75.90
53643;DHT22;39546;45.534;12.048;2023-03-13T17:28:11;16.70;76.20
53643;DHT22;39546;45.534;12.048;2023-03-13T17:34:14;16.50;76.60
53643;DHT22;39546;45.534;12.048;2023-03-13T17:40:21;16.40;76.90
53643;DHT22;39546;45.534;12.048;2023-03-13T17:46:46;16.30;77.10
53643;DHT22;39546;45.534;12.048;2023-03-13T17:52:49;16.20;77.30
53643;DHT22;39546;45.534;12.048;2023-03-13T17:58:53;16.20;77.40
53643;DHT22;39546;45.534;12.048;2023-03-13T18:04:58;16.10;77.70
53643;DHT22;39546;45.534;12.048;2023-03-13T18:11:01;16.10;77.80
53643;DHT22;39546;45.534;12.048;2023-03-13T18:17:12;16.00;77.90
53643;DHT22;39546;45.534;12.048;2023-03-13T18:23:14;16.00;77.90
53643;DHT22;39546;45.534;12.048;2023-03-13T18:29:19;16.00;78.00
53643;DHT22;39546;45.534;12.048;2023-03-13T18:35:26;16.10;78.10
53643;DHT22;39546;45.534;12.048;2023-03-13T18:41:28;16.20;78.10
53643;DHT22;39546;45.534;12.048;2023-03-13T18:47:31;16.20;78.10
53643;DHT22;39546;45.534;12.048;2023-03-13T18:53:33;16.30;78.30
53643;DHT22;39546;45.534;12.048;2023-03-13T19:06:25;16.70;79.60
53643;DHT22;39546;45.534;12.048;2023-03-13T19:12:27;16.70;79.40
53643;DHT22;39546;45.534;12.048;2023-03-13T19:18:30;16.70;79.10
53643;DHT22;39546;45.534;12.048;2023-03-13T19:24:32;16.50;79.10
53643;DHT22;39546;45.534;12.048;2023-03-13T19:30:34;16.30;79.40
53643;DHT22;39546;45.534;12.048;2023-03-13T19:36:44;16.40;79.40
53643;DHT22;39546;45.534;12.048;2023-03-13T19:42:46;16.30;79.30
53643;DHT22;39546;45.534;12.048;2023-03-13T19:48:50;16.40;79.40
53643;DHT22;39546;45.534;12.048;2023-03-13T19:54:53;16.50;80.40
53643;DHT22;39546;45.534;12.048;2023-03-13T20:00:56;16.50;80.60
53643;DHT22;39546;45.534;12.048;2023-03-13T20:06:59;16.40;80.30
53643;DHT22;39546;45.534;12.048;2023-03-13T20:13:03;16.40;81.30
53643;DHT22;39546;45.534;12.048;2023-03-13T20:19:05;16.40;82.50
53643;DHT22;39546;45.534;12.048;2023-03-13T20:25:08;16.30;81.90
53643;DHT22;39546;45.534;12.048;2023-03-13T20:31:11;16.40;82.00
53643;DHT22;39546;45.534;12.048;2023-03-13T20:37:13;16.30;81.50
53643;DHT22;39546;45.534;12.048;2023-03-13T20:43:15;16.30;81.80
53643;DHT22;39546;45.534;12.048;2023-03-13T20:49:17;16.20;81.70
53643;DHT22;39546;45.534;12.048;2023-03-13T20:55:19;16.20;81.50
53643;DHT22;39546;45.534;12.048;2023-03-13T21:01:21;16.10;81.50
53643;DHT22;39546;45.534;12.048;2023-03-13T21:07:25;16.20;81.60
53643;DHT22;39546;45.534;12.048;2023-03-13T21:13:27;16.20;81.40
53643;DHT22;39546;45.534;12.048;2023-03-13T21:19:30;16.20;81.50
53643;DHT22;39546;45.534;12.048;2023-03-13T21:25:33;16.20;81.70
53643;DHT22;39546;45.534;12.048;2023-03-13T21:31:35;16.20;81.70
53643;DHT22;39546;45.534;12.048;2023-03-13T21:37:37;16.10;81.80
53643;DHT22;39546;45.534;12.048;2023-03-13T21:43:40;16.10;82.00
53643;DHT22;39546;45.534;12.048;2023-03-13T21:49:43;16.10;82.20
53643;DHT22;39546;45.534;12.048;2023-03-13T21:55:48;16.00;82.00
53643;DHT22;39546;45.534;12.048;2023-03-13T22:01:50;15.90;82.80
53643;DHT22;39546;45.534;12.048;2023-03-13T22:07:53;15.90;82.80
53643;DHT22;39546;45.534;12.048;2023-03-13T22:13:56;15.90;82.60
53643;DHT22;39546;45.534;12.048;2023-03-13T22:19:58;15.70;82.60
53643;DHT22;39546;45.534;12.048;2023-03-13T22:26:00;15.70;82.60
53643;DHT22;39546;45.534;12.048;2023-03-13T22:32:03;15.70;82.40
53643;DHT22;39546;45.534;12.048;2023-03-13T22:38:05;15.70;82.20
53643;DHT22;39546;45.534;12.048;2023-03-13T22:44:07;15.80;82.10
53643;DHT22;39546;45.534;12.048;2023-03-13T22:50:10;15.80;82.20
53643;DHT22;39546;45.534;12.048;2023-03-13T22:56:13;15.80;82.60
53643;DHT22;39546;45.534;12.048;2023-03-13T23:02:15;15.80;82.40
53643;DHT22;39546;45.534;12.048;2023-03-13T23:08:17;15.80;82.60
53643;DHT22;39546;45.534;12.048;2023-03-13T23:14:19;15.80;82.70
53643;DHT22;39546;45.534;12.048;2023-03-13T23:20:21;15.70;82.80
53643;DHT22;39546;45.534;12.048;2023-03-13T23:26:23;15.70;82.80
53643;DHT22;39546;45.534;12.048;2023-03-13T23:32:25;15.50;82.90
53643;DHT22;39546;45.534;12.048;2023-03-13T23:38:28;15.50;83.10
53643;DHT22;39546;45.534;12.048;2023-03-13T23:44:30;15.50;82.80
53643;DHT22;39546;45.534;12.048;2023-03-13T23:50:32;15.30;83.10
53643;DHT22;39546;45.534;12.048;2023-03-13T23:56:34;15.30;83.00
